UDYZUDSG

Guest
Details From UDYZ - ZVARTNOTS
To UDSG - GYUMRI
Flight Number -
Tags generated
Created
Modified
Stats Distance 44 nm / 82 km
Max Altitude 200 ft / 61 m
Waypoints 3
Social Downloads 0
Likes 0
Share VATSIM

Download

Looking for another format? Having issues loading an existing format? Contact us
Advertisement - Login to hide

Notes

Basic altitude profile: - Ascent Rate: 2500ft/min - Ascent Speed: 250kts - Cruise Altitude: 38000ft - Cruise Speed: 420kts - Descent Rate: 1500ft/min - Descent Speed: 250kts Options: - Use NATs: yes - Use PACOTS: yes - Use low airways: yes - Use high airways: yes

Route

UDYZ GRM UDSG

ID Type Via Altitude Latitude Longitude Leg Dist Tot Dist Heading (true) Name
O UDYZ APT - 0 ft / 0 m 40.14727˚ 44.39588˚ - 0 nm - ZVARTNOTS
GRM VOR - 200 ft / 61 m 40.72941˚ 43.84724˚ 43 nm 43 nm 325° / 324° GYUMRI VOR-DME
O UDSG APT - 0 ft / 0 m 40.75037˚ 43.85934˚ 1 nm 44 nm 24° / 24° GYUMRI

Altitude Profile

Advertisement - Login to hide

UDYZ

Details ICAO UDYZ (EVN)
Name ZVARTNOTS
Region Armenia
Timezone Asia/Yerevan (UTC+4.0)
Stats Elevation 2,838 ft / 865 m (AMSL)
Location 40.147271° 44.395880°
Runways 1
Magnetic Variation 6.201° E

METAR

UDYZ 150030Z 00000KT 2000 R09/P2000N BR NSC M05/M06 Q1020 R09/000070 NOSIG

Decode

TAF

TAF UDYZ 141707Z 1418/1518 VRB04KT 2000 BR NSC TEMPO 1421/1506 0800 FZFG VV003

Decode

Departure Runways

ID Width Length Bearing (true) Bearing (mag) Surface Threshold Offset Overrun Length
09 184 ft / 56 m 12,601 ft / 3,841 m 89.59° 83.39° Asphalt 0 ft / 0 m 0 ft / 0 m
27 184 ft / 56 m 12,601 ft / 3,841 m 269.62° 263.42° Asphalt 0 ft / 0 m 0 ft / 0 m

UDSG

Details ICAO UDSG (LWN)
Name GYUMRI
Region Armenia
Timezone Asia/Yerevan (UTC+4.0)
Stats Elevation 5,000 ft / 1,524 m (AMSL)
Location 40.750369° 43.859341°
Runways 1
Magnetic Variation 6.363° E

METAR

UDSG 150030Z 00000KT 6000 NSC M10/M12 Q1018 R02/CLRD70 NOSIG

Decode

TAF

TAF UDSG 141710Z 1418/1518 22004KT 5000 BR NSC TEMPO 1500/1507 0600 FZFG VV002

Decode

Destination Runways

ID Width Length Bearing (true) Bearing (mag) Surface Threshold Offset Overrun Length
02 147 ft / 45 m 10,531 ft / 3,210 m 23.60° 17.24° Asphalt 0 ft / 0 m 0 ft / 0 m
20 147 ft / 45 m 10,531 ft / 3,210 m 203.61° 197.25° Asphalt 0 ft / 0 m 0 ft / 0 m